M I D A S
Marine Information and Data Acquisition System
Tripno 717 of the Zeeleeuw from 2004-05-14 06:12:26 to 2004-05-14 14:22:56
Back to CruiseResearch ActivitiesStationsMapUnderway DataData graphs

EquipmentUnitsComment
TimeDGPSUTC
LatitudeDGPSDM.mWGS84
LongitudeDGPSDM.mWGS84
TemperatureSBE03/SBE38deg celciusITS90
ConductivitySBE21S/mITS90
SalinitySBE21 Practical Salinity Units
ChlorophylAChelsea fluorimeterg/lCalibrated in Aceton
Missing or incorrect values are displayed as -999
Sea surface data collected by the RV Zeeleeuw from 2004-05-14 06:12:26 to 2004-05-14 14:22:56
Time Latitude Longitude Temperature Conductivity Salinity ChlorophylA
2004-05-14 06:13:29 51°13.678 2°55.746 18.279888 4.134913 31.714366 13.781212
2004-05-14 06:14:30 51°13.736 2°55.731 18.174342 4.134808 31.717489 13.781212
2004-05-14 06:15:30 51°13.824 2°55.648 18.188048 4.134491 31.714207 13.781212
2004-05-14 06:16:29 51°13.934 2°55.564 18.194651 4.134386 31.715605 13.713794
2004-05-14 06:17:28 51°14.053 2°55.474 18.191785 4.13407 31.714049 13.713794
2004-05-14 06:18:30 51°14.196 2°55.356 18.180988 4.133753 31.713067 13.680084
2004-05-14 06:19:29 51°14.327 2°55.158 18.156189 4.133543 31.712988 13.680084
2004-05-14 06:20:29 51°14.477 2°54.927 18.094714 4.133859 31.71512 13.578956
2004-05-14 06:21:30 51°14.664 2°54.722 18.142519 4.133437 31.713811 13.612665
2004-05-14 06:22:29 51°14.847 2°54.524 18.123983 4.133332 31.71521 13.612665
2004-05-14 06:23:29 51°15.03 2°54.324 18.127433 4.13291 31.7116 13.545247
2004-05-14 06:24:28 51°15.211 2°54.125 18.10461 4.13291 31.713326 13.545247
2004-05-14 06:25:29 51°15.401 2°53.918 18.134914 4.132172 31.709309 13.545247
2004-05-14 06:26:30 51°15.59 2°53.711 18.120366 4.132172 31.709885 13.511537
2004-05-14 06:27:29 51°15.77 2°53.508 18.113258 4.132488 31.713168 13.410409
2004-05-14 06:28:30 51°15.965 2°53.323 18.116334 4.131645 31.707673 13.477828
2004-05-14 06:29:29 51°16.171 2°53.196 18.116625 4.131645 31.709974 13.444118
2004-05-14 06:30:30 51°16.38 2°53.049 18.10303 4.131961 31.713834 13.3767
2004-05-14 06:31:30 51°16.584 2°52.903 18.145469 4.130907 31.706533 13.3767
2004-05-14 06:32:28 51°16.776 2°52.759 18.098997 4.131434 31.711046 13.444118
2004-05-14 06:33:29 51°16.985 2°52.644 18.118038 4.131012 31.710313 13.410409
2004-05-14 06:34:30 51°17.196 2°52.535 18.136119 4.130485 31.70695 13.477828
2004-05-14 06:35:30 51°17.408 2°52.465 18.13109 4.130801 31.710234 13.410409
2004-05-14 06:36:30 51°17.621 2°52.396 18.128181 4.130696 31.711058 13.3767
2004-05-14 06:37:30 51°17.835 2°52.331 18.137241 4.13038 31.7095 13.3767
2004-05-14 06:38:29 51°18.047 2°52.359 18.143765 4.130169 31.708845 13.34299
2004-05-14 06:39:30 51°18.262 2°52.448 18.154776 4.129958 31.708191 13.309281
2004-05-14 06:40:30 51°18.474 2°52.531 18.164041 4.129642 31.706633 13.34299
2004-05-14 06:41:28 51°18.68 2°52.608 18.172639 4.129642 31.70836 13.34299
2004-05-14 06:42:30 51°18.901 2°52.689 18.180282 4.129536 31.708609 13.3767
2004-05-14 06:43:29 51°19.112 2°52.765 18.190207 4.129325 31.706802 13.275571
2004-05-14 06:44:29 51°19.328 2°52.841 18.19029 4.129115 31.706723 13.34299
2004-05-14 06:45:30 51°19.548 2°52.918 18.198305 4.129009 31.707548 13.34299
2004-05-14 06:46:29 51°19.758 2°53.01 18.213873 4.128482 31.704183 13.34299
2004-05-14 06:47:29 51°19.969 2°53.12 18.214745 4.128798 31.706893 13.241862
2004-05-14 06:48:30 51°20.185 2°53.231 18.220598 4.128904 31.708948 13.241862
2004-05-14 06:49:30 51°20.398 2°53.34 18.24081 4.128271 31.705256 13.275571
2004-05-14 06:50:28 51°20.604 2°53.447 18.239606 4.128271 31.705832 13.241862
2004-05-14 06:51:30 51°20.824 2°53.565 18.239814 4.128271 31.706983 13.275571
2004-05-14 06:52:30 51°21.035 2°53.679 18.254668 4.127639 31.703867 13.275571
2004-05-14 06:53:29 51°21.245 2°53.792 18.25695 4.12806 31.706905 13.208153
2004-05-14 06:54:30 51°21.463 2°53.909 18.262924 4.12806 31.707481 13.174443
2004-05-14 06:55:30 51°21.677 2°54.024 18.274787 4.12785 31.706826 13.140734
2004-05-14 06:56:33 51°21.901 2°54.144 18.29096 4.127533 31.705267 13.208153
2004-05-14 06:57:34 51°22.12 2°54.26 18.287187 4.127639 31.707323 13.174443
2004-05-14 06:58:34 51°22.334 2°54.377 18.29718 4.127322 31.705765 13.174443
2004-05-14 06:59:35 51°22.55 2°54.494 18.305389 4.127217 31.704861 13.140734
2004-05-14 07:00:34 51°22.758 2°54.605 18.32512 4.126901 31.704455 13.140734
2004-05-14 07:01:34 51°22.969 2°54.718 18.328809 4.126795 31.703551 13.140734
2004-05-14 07:02:34 51°23.173 2°54.858 18.347663 4.126479 31.702569 13.107024
2004-05-14 07:03:34 51°23.376 2°55.011 18.340744 4.127006 31.707087 13.107024
2004-05-14 07:04:34 51°23.579 2°55.164 18.347124 4.12669 31.704952 13.039606
2004-05-14 07:05:35 51°23.787 2°55.319 18.369992 4.126479 31.704297 13.005896
2004-05-14 07:06:34 51°23.988 2°55.471 18.366719 4.126795 31.707584 13.039606
2004-05-14 07:07:34 51°24.195 2°55.624 18.377529 4.126268 31.703642 13.005896
2004-05-14 07:08:34 51°24.402 2°55.777 18.397695 4.125636 31.699948 13.005896
2004-05-14 07:09:35 51°24.614 2°55.934 18.392603 4.126268 31.705947 13.005896
2004-05-14 07:10:34 51°24.82 2°56.094 18.402581 4.126374 31.708003 13.005896
2004-05-14 07:11:34 51°25.027 2°56.254 18.418808 4.125846 31.704637 13.005896
2004-05-14 07:12:34 51°25.231 2°56.41 12.060485 3.919042 32.575428 29.860597
2004-05-14 07:13:34 51°25.433 2°56.563 11.942516 3.813337 32.872305 34.984426
2004-05-14 07:14:35 51°25.635 2°56.721 11.903025 3.791942 32.763955 19.815195
2004-05-14 07:15:35 51°25.834 2°56.875 11.898468 3.778136 32.669683 15.02846
2004-05-14 07:16:34 51°26.029 2°57.029 11.867795 3.780244 32.722409 13.107024
2004-05-14 07:17:35 51°26.206 2°57.258 11.85731 3.780982 32.745419 13.410409
2004-05-14 07:18:35 51°26.368 2°57.507 11.84135 3.779823 32.754304 14.556529
2004-05-14 07:19:34 51°26.53 2°57.75 11.851017 3.780877 32.774171 15.399264
2004-05-14 07:20:34 51°26.695 2°57.995 11.840209 3.784672 32.81357 15.567811
2004-05-14 07:21:35 51°26.863 2°58.243 11.858267 3.78562 32.828975 15.871195
2004-05-14 07:22:34 51°27.026 2°58.483 11.797189 3.791944 32.916506 24.096289
2004-05-14 07:23:34 51°27.192 2°58.723 11.837382 3.785199 32.856874 17.624084
2004-05-14 07:24:35 51°27.362 2°58.969 11.785779 3.787623 32.860824 16.309418
2004-05-14 07:25:35 51°27.531 2°59.21 11.758935 3.774976 32.80045 16.039742
2004-05-14 07:26:34 51°27.696 2°59.45 11.763593 3.774555 32.79985 14.590238
2004-05-14 07:27:34 51°27.865 2°59.694 11.767245 3.77603 32.816214 14.522819
2004-05-14 07:28:35 51°28.036 2°59.943 11.760579 3.775082 32.810515 14.792494
2004-05-14 07:29:34 51°28.204 3°0.185 11.744093 3.780246 32.869559 15.399264
2004-05-14 07:30:34 51°28.374 3°0.43 11.734273 3.782882 32.912531 16.241999
2004-05-14 07:31:35 51°28.547 3°0.682 11.730801 3.789943 32.979552 21.096153
2004-05-14 07:32:35 51°28.718 3°0.929 11.732766 3.786465 32.948649 16.477965
2004-05-14 07:33:34 51°28.886 3°1.175 11.727558 3.784568 32.93866 14.421691
2004-05-14 07:34:34 51°29.042 3°1.448 11.722213 3.787098 32.962476 15.938614
2004-05-14 07:35:34 51°29.185 3°1.741 11.718877 3.789311 32.992338 17.691503
2004-05-14 07:36:34 51°29.324 3°2.041 11.730756 3.788152 32.980397 16.612802
2004-05-14 07:37:35 51°29.432 3°2.381 11.711018 3.786781 32.965713 17.084734
2004-05-14 07:38:34 51°29.535 3°2.711 11.739069 3.78773 32.975609 16.815059
2004-05-14 07:39:35 51°29.644 3°3.049 11.745418 3.791946 33.002462 16.545383
2004-05-14 07:40:35 51°29.753 3°3.378 11.727055 3.794054 33.020089 15.972324
2004-05-14 07:41:34 51°29.86 3°3.702 11.728791 3.793843 33.023656 16.612802
2004-05-14 07:42:34 51°29.969 3°4.034 11.730984 3.790892 33.004162 16.511674
2004-05-14 07:43:34 51°30.077 3°4.363 11.741581 3.792051 32.997878 16.208289
2004-05-14 07:44:33 51°30.183 3°4.687 11.723583 3.790049 32.984075 15.02846
2004-05-14 07:45:35 51°30.294 3°5.028 11.698222 3.787519 32.97847 15.972324
2004-05-14 07:46:34 51°30.402 3°5.352 11.722944 3.785938 32.970848 15.63523
2004-05-14 07:47:35 51°30.512 3°5.688 11.739343 3.788468 32.98066 14.961042
2004-05-14 07:48:35 51°30.62 3°6.018 11.746468 3.789627 32.976488 14.050888
2004-05-14 07:49:34 51°30.727 3°6.344 11.743317 3.789943 32.983054 13.241862
2004-05-14 07:50:35 51°30.838 3°6.679 11.75962 3.790892 32.985943 12.365418
2004-05-14 07:51:35 51°30.949 3°7.009 11.763273 3.792156 32.979296 12.297999
2004-05-14 07:52:35 51°31.058 3°7.337 11.741353 3.792051 32.995076 14.48911
2004-05-14 07:53:34 51°31.168 3°7.662 11.717004 3.790576 33.002498 16.815059
2004-05-14 07:54:35 51°31.274 3°8.005 11.702336 3.79047 33.00919 20.725349
2004-05-14 07:55:34 51°31.372 3°8.343 11.691138 3.789733 33.012558 25.410956
2004-05-14 07:56:35 51°31.473 3°8.693 11.69452 3.789522 33.021043 27.197554
2004-05-14 07:57:35 51°31.575 3°9.039 11.685012 3.790365 33.027118 25.849178
2004-05-14 07:58:35 51°31.675 3°9.384 11.713029 3.788257 32.999648 23.455811
2004-05-14 07:59:35 51°31.776 3°9.726 11.683138 3.789206 33.012359 18.702785
2004-05-14 08:00:35 51°31.877 3°10.069 11.664713 3.782039 32.961757 18.466819
2004-05-14 08:01:35 51°31.977 3°10.414 11.708139 3.780458 32.954127 17.556665
2004-05-14 08:02:35 51°32.078 3°10.758 11.725685 3.784779 32.952601 13.107024
2004-05-14 08:03:34 51°32.177 3°11.097 11.708688 3.784146 32.931077 12.635093
2004-05-14 08:04:34 51°32.277 3°11.444 11.693697 3.785833 32.977536 16.208289
2004-05-14 08:05:34 51°32.378 3°11.79 11.688669 3.789733 33.025195 15.466683
2004-05-14 08:06:34 51°32.478 3°12.134 11.691732 3.788363 33.013303 15.264426
2004-05-14 08:07:35 51°32.582 3°12.486 11.693286 3.792579 33.050705 14.623947
2004-05-14 08:08:35 51°32.683 3°12.833 11.705443 3.790471 33.027439 13.578956
2004-05-14 08:09:34 51°32.785 3°13.172 11.708002 3.787941 32.993074 12.736221
2004-05-14 08:10:34 51°32.895 3°13.514 11.720431 3.793527 33.043047 13.005896
2004-05-14 08:11:42 51°33.02 3°13.902 11.71545 3.792684 33.029954 14.927332
2004-05-14 08:12:43 51°33.134 3°14.253 11.71015 3.793 33.037233 17.522956
2004-05-14 08:13:42 51°33.242 3°14.593 11.707865 3.792262 33.032183 20.455674
2004-05-14 08:14:41 51°33.35 3°14.933 11.735095 3.792684 33.020131 21.938888
2004-05-14 08:15:42 51°33.461 3°15.283 11.718557 3.791313 33.00895 23.118717
2004-05-14 08:16:42 51°33.57 3°15.628 11.71015 3.789416 32.994762 18.43311
2004-05-14 08:17:42 51°33.679 3°15.972 11.804125 3.786886 32.943641 18.635366
2004-05-14 08:18:42 51°33.786 3°16.314 11.819866 3.783724 32.857224 11.050751
2004-05-14 08:19:42 51°33.887 3°16.661 11.821189 3.784778 32.872987 10.882204
2004-05-14 08:20:43 51°33.983 3°17.02 11.784501 3.786359 32.880613 10.983332
2004-05-14 08:21:43 51°34.077 3°17.378 11.727375 3.785833 32.932033 17.657794
2004-05-14 08:22:43 51°34.173 3°17.734 11.704301 3.785306 32.957711 18.871332
2004-05-14 08:23:42 51°34.269 3°18.083 11.686247 3.785412 32.977653 18.365691
2004-05-14 08:24:41 51°34.375 3°18.425 11.685287 3.785939 32.993288 21.938888
2004-05-14 08:25:42 51°34.483 3°18.778 11.673035 3.786571 32.998021 18.096016
2004-05-14 08:26:42 51°34.59 3°19.125 11.692966 3.78752 33.012844 15.972324
2004-05-14 08:27:42 51°34.696 3°19.469 11.65424 3.791103 33.031468 16.646512
2004-05-14 08:28:42 51°34.803 3°19.812 11.641982 3.788258 33.053056 22.781623
2004-05-14 08:29:42 51°34.909 3°20.156 11.681401 3.788047 33.039046 23.186136
2004-05-14 08:30:42 51°35.015 3°20.502 11.663981 3.790155 33.036313 22.815332
2004-05-14 08:31:42 51°35.121 3°20.851 11.656984 3.788047 33.038343 26.658204
2004-05-14 08:32:43 51°35.228 3°21.208 11.65081 3.787309 33.035397 28.073999
2004-05-14 08:33:43 51°35.334 3°21.562 11.649209 3.787099 33.034053 30.534785
2004-05-14 08:34:43 51°35.44 3°21.918 11.647471 3.786361 33.035327 32.557349
2004-05-14 08:35:43 51°35.546 3°22.273 11.640839 3.786888 33.035522 34.647332
2004-05-14 08:36:43 51°35.653 3°22.629 11.646236 3.786782 33.04083 36.838443
2004-05-14 08:37:42 51°35.757 3°22.978 11.651222 3.787625 33.038468 33.905725
2004-05-14 08:38:42 51°35.847 3°23.343 11.650719 3.729976 32.479159 33.905725
2004-05-14 08:39:43 51°35.941 3°23.71 11.641845 3.787731 33.04864 34.478785
2004-05-14 08:40:43 51°35.995 3°23.969 11.628212 3.788363 33.053376 33.366375
2004-05-14 08:41:43 51°36.036 3°24.092 11.641479 3.78752 33.055744 32.793315
2004-05-14 08:42:42 51°36.071 3°24.176 11.64834 3.78889 33.055681 28.478512
2004-05-14 08:43:42 51°36.1 3°24.248 11.65145 3.789101 33.056321 28.343674
2004-05-14 08:44:43 51°36.125 3°24.312 11.642257 3.789312 33.056961 28.815606
2004-05-14 08:45:43 51°36.145 3°24.37 11.634114 3.788363 33.059009 30.80446
2004-05-14 08:46:43 51°36.162 3°24.426 11.632147 3.787942 33.059842 32.692187
2004-05-14 08:47:42 51°36.176 3°24.481 11.628349 3.787942 33.058433 33.501212
2004-05-14 08:48:40 51°36.187 3°24.534 11.629631 3.788047 33.059457 34.950717
2004-05-14 08:49:43 51°36.196 3°24.591 11.628121 3.788047 33.06157 35.456358
2004-05-14 08:50:43 51°36.204 3°24.644 11.627709 3.787837 33.06093 36.568768
2004-05-14 08:51:42 51°36.208 3°24.698 11.631872 3.788047 33.060866 35.490067
2004-05-14 08:52:42 51°36.212 3°24.754 11.640107 3.78868 33.058561 33.298956
2004-05-14 08:53:42 51°36.225 3°24.844 11.656847 3.78889 33.057793 34.006853
2004-05-14 08:54:42 51°36.252 3°24.95 11.651359 3.790471 33.061185 33.400084
2004-05-14 08:55:42 51°36.275 3°25.054 11.647746 3.789839 33.059969 31.579777
2004-05-14 08:56:40 51°36.288 3°25.157 11.649118 3.789733 33.061057 30.905589
2004-05-14 08:57:43 51°36.297 3°25.266 11.640107 3.789417 33.062209 32.422512
2004-05-14 08:58:42 51°36.307 3°25.366 11.642257 3.788574 33.054017 32.017999
2004-05-14 08:59:41 51°36.319 3°25.464 11.640976 3.789628 33.062849 31.815742
2004-05-14 09:00:43 51°36.332 3°25.566 11.640244 3.789523 33.062529 30.770751
2004-05-14 09:01:42 51°36.345 3°25.662 11.642074 3.78889 33.060609 32.152836
2004-05-14 09:02:41 51°36.359 3°25.756 11.639512 3.789417 33.060801 31.478648
2004-05-14 09:03:42 51°36.372 3°25.854 11.635532 3.788153 33.052736 31.343811
2004-05-14 09:04:43 51°36.385 3°25.953 11.636905 3.787626 33.051135 33.366375
2004-05-14 09:05:43 51°36.399 3°26.049 11.636905 3.787204 33.047743 32.557349
2004-05-14 09:06:40 51°36.409 3°26.141 11.62565 3.786466 33.044797 34.917007
2004-05-14 09:07:43 51°36.415 3°26.245 11.625147 3.785834 33.039355 34.815879
2004-05-14 09:08:43 51°36.42 3°26.344 11.619656 3.785202 33.036024 36.636187
2004-05-14 09:09:42 51°36.424 3°26.441 11.627389 3.784464 33.030965 37.141828
2004-05-14 09:10:42 51°36.431 3°26.539 11.637225 3.785202 33.031098 34.377657
2004-05-14 09:11:43 51°36.438 3°26.639 11.639375 3.782145 32.992261 32.961862
2004-05-14 09:12:43 51°36.444 3°26.738 11.642257 3.785728 33.026369 32.456221
2004-05-14 09:13:42 51°36.452 3°26.834 11.64308 3.784885 33.019584 33.905725
2004-05-14 09:14:42 51°36.462 3°26.932 11.658722 3.781618 32.978715 31.95058
2004-05-14 09:15:42 51°36.474 3°27.03 11.658859 3.786361 33.019153 30.602204
2004-05-14 09:16:43 51°36.486 3°27.13 11.65767 3.782988 32.983594 31.546067
2004-05-14 09:17:43 51°36.494 3°27.224 11.65296 3.785623 33.013394 33.872016
2004-05-14 09:18:43 51°36.501 3°27.314 11.653326 3.784991 33.009361 35.726033
2004-05-14 09:19:43 51°36.507 3°27.403 11.659225 3.784885 33.008337 36.771024
2004-05-14 09:20:42 51°36.514 3°27.488 11.666679 3.785201 33.003679 35.827161
2004-05-14 09:21:42 51°36.52 3°27.573 11.663661 3.785517 33.003939 34.815879
2004-05-14 09:22:43 51°36.527 3°27.659 11.665673 3.785517 33.002535 34.040563
2004-05-14 09:23:42 51°36.535 3°27.743 11.662289 3.785728 33.004581 35.591195
2004-05-14 09:24:41 51°36.542 3°27.827 11.662335 3.785307 33.003298 38.389076
2004-05-14 09:25:43 51°36.549 3°27.916 11.672852 3.785623 33.001451 37.242956
2004-05-14 09:26:43 51°36.556 3°28.002 11.672074 3.786466 33.004721 36.332802
2004-05-14 09:27:40 51°36.565 3°28.082 11.669697 3.786255 33.005483 38.861007
2004-05-14 09:28:43 51°36.575 3°28.177 11.677424 3.786466 33.005423 37.883435
2004-05-14 09:29:41 51°36.585 3°28.279 11.685012 3.786887 33.0046 36.872153
2004-05-14 09:30:43 51°36.599 3°28.398 11.68515 3.787625 33.006846 36.164255
2004-05-14 09:31:40 51°36.614 3°28.509 11.682132 3.788047 33.009533 37.0407
2004-05-14 09:32:43 51°36.631 3°28.614 11.678429 3.787414 33.010417 39.029554
2004-05-14 09:33:41 51°36.646 3°28.698 11.672806 3.787098 33.007348 39.973418
2004-05-14 09:34:43 51°36.663 3°28.787 11.675686 3.787204 33.009775 38.894717
2004-05-14 09:35:43 51°36.678 3°28.88 11.678658 3.787309 33.0115 42.265657
2004-05-14 09:36:42 51°36.695 3°28.971 11.678932 3.785728 32.993348 42.09711
2004-05-14 09:37:43 51°36.714 3°29.062 11.675686 3.784358 32.977245 41.760016
2004-05-14 09:38:43 51°36.733 3°29.153 11.674178 3.786255 32.998462 41.726306
2004-05-14 09:39:43 51°36.751 3°29.244 11.675321 3.786044 32.99782 42.535332
2004-05-14 09:40:42 51°36.767 3°29.335 11.674315 3.785306 32.993467 44.692734
2004-05-14 09:41:40 51°36.779 3°29.424 11.67308 3.785306 32.991362 45.097247
2004-05-14 09:42:43 51°36.789 3°29.52 11.67084 3.784674 32.989435 46.816426
2004-05-14 09:43:41 51°36.797 3°29.611 11.67939 3.784252 32.982536 45.366922
2004-05-14 09:44:43 51°36.805 3°29.707 11.686155 3.78499 32.981978 42.164529
2004-05-14 09:45:43 51°36.813 3°29.799 11.682407 3.785201 32.980517 40.243093
2004-05-14 09:46:43 51°36.823 3°29.891 11.690224 3.784569 32.979992 39.973418
2004-05-14 09:47:42 51°36.831 3°29.981 11.683915 3.784569 32.975784 38.523913
2004-05-14 09:48:40 51°36.839 3°30.069 11.681904 3.783936 32.972453 38.490204
2004-05-14 09:49:43 51°36.849 3°30.164 11.678201 3.783725 32.97181 38.456494
2004-05-14 09:50:42 51°36.859 3°30.253 11.673675 3.783198 32.968099 39.602614
2004-05-14 09:51:42 51°36.867 3°30.344 11.676738 3.782566 32.96617 38.962136
2004-05-14 09:52:43 51°36.874 3°30.437 11.678338 3.782145 32.961377 38.051982
2004-05-14 09:53:43 51°36.88 3°30.528 11.679892 3.782145 32.958573 38.355366
2004-05-14 09:54:40 51°36.884 3°30.614 11.682178 3.782355 32.957814 36.804734
2004-05-14 09:55:45 51°36.89 3°30.714 11.68515 3.78225 32.95539 35.793452
2004-05-14 09:56:44 51°36.896 3°30.803 11.684418 3.781828 32.952 36.669896
2004-05-14 09:57:44 51°36.902 3°30.893 11.68291 3.781617 32.949955 37.714888
2004-05-14 09:58:44 51°36.907 3°30.984 11.691412 3.781512 32.948232 36.096836
2004-05-14 09:59:45 51°36.913 3°31.077 11.693469 3.78225 32.94488 33.973144
2004-05-14 10:00:44 51°36.917 3°31.169 11.701787 3.782039 32.942135 33.029281
2004-05-14 10:01:44 51°36.915 3°31.26 11.707865 3.78246 32.939921 32.017999
2004-05-14 10:02:44 51°36.911 3°31.352 11.706449 3.782355 32.936799 33.804597
2004-05-14 10:03:45 51°36.904 3°31.444 11.709373 3.782355 32.937499 33.939435
2004-05-14 10:04:45 51°36.898 3°31.536 11.715588 3.782776 32.935287 32.725896
2004-05-14 10:05:44 51°36.892 3°31.625 11.71737 3.78362 32.937862 30.669623
2004-05-14 10:06:45 51°36.885 3°31.716 11.711292 3.783514 32.935441 30.501076
2004-05-14 10:07:44 51°36.873 3°31.8 11.709373 3.782671 32.932865 33.164118
2004-05-14 10:08:44 51°36.858 3°31.882 11.714994 3.78246 32.932221 34.006853
2004-05-14 10:09:44 51°36.84 3°31.976 11.710744 3.783093 32.936952 32.759606
2004-05-14 10:10:45 51°36.827 3°32.072 11.73103 3.783725 32.938884 31.006717
2004-05-14 10:11:44 51°36.822 3°32.155 11.734593 3.7852 32.939891 27.43352
2004-05-14 10:12:50 51°36.82 3°32.236 11.73304 3.785411 32.937038 26.219982
2004-05-14 10:13:50 51°36.814 3°32.301 11.731121 3.784884 32.938226 29.354956
2004-05-14 10:14:50 51°36.804 3°32.355 11.727923 3.784884 32.940325 32.220255
2004-05-14 10:15:48 51°36.794 3°32.4 11.738612 3.784252 32.935595 34.512494
2004-05-14 10:16:50 51°36.782 3°32.441 11.743088 3.785411 32.936338 32.624768
2004-05-14 10:17:50 51°36.77 3°32.473 11.735369 3.786149 32.941388 32.658477
2004-05-14 10:18:50 51°36.759 3°32.499 11.741307 3.785938 32.941444 32.624768
2004-05-14 10:19:49 51°36.75 3°32.522 11.731487 3.786149 32.944886 33.703469
2004-05-14 10:20:50 51°36.743 3°32.54 11.729065 3.785411 32.943333 35.456358
2004-05-14 10:21:50 51°36.737 3°32.557 11.725685 3.785833 32.951617 36.636187
2004-05-14 10:22:49 51°36.732 3°32.572 11.722441 3.785622 32.953774 38.287947
2004-05-14 10:23:50 51°36.729 3°32.585 11.733496 3.786149 32.954682 37.714888
2004-05-14 10:24:50 51°36.727 3°32.599 11.733222 3.786887 32.961133 37.108118
2004-05-14 10:25:50 51°36.726 3°32.611 11.736648 3.788046 32.964669 36.096836
2004-05-14 10:26:50 51°36.726 3°32.624 11.73304 3.788573 32.967675 36.872153
2004-05-14 10:27:50 51°36.726 3°32.636 11.727375 3.788468 32.969454 37.984563
2004-05-14 10:28:50 51°36.728 3°32.648 11.722807 3.787941 32.972049 39.737452
2004-05-14 10:29:50 51°36.73 3°32.661 11.721162 3.787519 32.975667 40.344221
2004-05-14 10:30:50 51°36.732 3°32.674 11.729157 3.788152 32.975493 40.883571
2004-05-14 10:31:50 51°36.733 3°32.686 11.730619 3.788784 32.975319 40.95099
2004-05-14 10:32:50 51°36.736 3°32.668 11.735232 3.788468 32.975756 42.198238
2004-05-14 10:33:50 51°36.729 3°32.489 11.741125 3.788362 32.966333 40.108255
2004-05-14 10:34:50 51°36.712 3°32.156 11.720705 3.791208 32.990408 33.501212
2004-05-14 10:35:50 51°36.697 3°31.811 11.706814 3.789416 33.000372 37.58005
2004-05-14 10:36:50 51°36.685 3°31.464 11.691138 3.789944 33.009691 38.490204
2004-05-14 10:37:48 51°36.673 3°31.13 11.680075 3.789628 33.022066 39.670033
2004-05-14 10:38:50 51°36.66 3°30.775 11.680898 3.789522 33.025959 39.467777
2004-05-14 10:39:50 51°36.65 3°30.429 11.687527 3.789417 33.023532 40.37793
2004-05-14 10:40:50 51°36.628 3°30.086 11.695343 3.789522 33.02315 42.535332
2004-05-14 10:41:50 51°36.598 3°29.745 11.700188 3.790892 33.027316 40.512768
2004-05-14 10:42:50 51°36.568 3°29.405 11.706403 3.79163 33.029559 42.299366
2004-05-14 10:43:50 51°36.539 3°29.064 11.715222 3.792368 33.028291 41.490341
2004-05-14 10:44:50 51°36.509 3°28.721 11.7128 3.792578 33.032442 41.793725
2004-05-14 10:45:50 51°36.48 3°28.38 11.708642 3.792578 33.03174 40.647606
2004-05-14 10:46:50 51°36.452 3°28.04 11.716821 3.793421 33.034302 38.490204
2004-05-14 10:47:50 51°36.424 3°27.698 11.722532 3.793843 33.037689 37.647469
2004-05-14 10:48:50 51°36.397 3°27.356 11.728791 3.795108 33.041531 35.119264
2004-05-14 10:49:50 51°36.371 3°27.014 11.725045 3.795213 33.042552 35.726033
2004-05-14 10:50:50 51°36.346 3°26.671 11.722852 3.794581 33.038526 37.445212
2004-05-14 10:51:50 51°36.306 3°26.333 11.725776 3.793948 33.037307 39.029554
2004-05-14 10:52:50 51°36.264 3°25.996 11.715359 3.793422 33.036408 39.535195
2004-05-14 10:53:50 51°36.222 3°25.658 11.730664 3.794159 33.042159 38.928426
2004-05-14 10:54:50 51°36.181 3°25.319 11.725685 3.795318 33.037259 37.141828
2004-05-14 10:55:50 51°36.142 3°24.98 11.741901 3.795845 33.040964 37.411503
2004-05-14 10:56:49 51°36.103 3°24.646 11.763182 3.795635 33.039622 38.051982
2004-05-14 10:57:50 51°36.064 3°24.3 11.789294 3.79985 33.040505 32.119127
2004-05-14 10:58:50 51°36.024 3°23.959 11.78021 3.800272 33.047391 32.085418
2004-05-14 10:59:50 51°35.984 3°23.617 11.802163 3.800693 33.040963 30.534785
2004-05-14 11:00:50 51°35.944 3°23.275 11.780165 3.800904 33.041603 30.029144
2004-05-14 11:01:50 51°35.903 3°22.932 11.76341 3.799534 33.045853 32.624768
2004-05-14 11:02:50 51°35.862 3°22.588 11.768615 3.797848 33.037929 35.759742
2004-05-14 11:03:50 51°35.822 3°22.247 11.811563 3.797426 33.024034 36.197965
2004-05-14 11:04:50 51°35.783 3°21.905 11.787148 3.799955 33.015621 36.501349
2004-05-14 11:05:50 51°35.744 3°21.563 11.787468 3.797531 33.015951 35.388939
2004-05-14 11:06:50 51°35.706 3°21.223 11.838157 3.796583 33.006066 33.06299
2004-05-14 11:07:50 51°35.668 3°20.882 11.909039 3.804697 32.973506 26.152563
2004-05-14 11:08:50 51°35.632 3°20.544 11.835558 3.800481 32.968336 18.500529
2004-05-14 11:09:50 51°35.586 3°20.208 11.856215 3.79616 32.960054 19.714067
2004-05-14 11:10:50 51°35.529 3°19.875 11.918423 3.800692 32.936939 22.983879
2004-05-14 11:11:50 51°35.474 3°19.541 11.895005 3.801008 32.933729 23.860324
2004-05-14 11:12:50 51°35.415 3°19.206 11.847916 3.798373 32.939613 26.32111
2004-05-14 11:13:50 51°35.358 3°18.872 11.811152 3.795844 32.959788 31.815742
2004-05-14 11:14:50 51°35.301 3°18.534 11.816353 3.797004 32.982873 35.523777
2004-05-14 11:15:50 51°35.254 3°18.195 11.804353 3.79985 33.012503 34.445076
2004-05-14 11:16:50 51°35.217 3°17.853 11.919653 3.803749 33.042538 29.69205
2004-05-14 11:17:50 51°35.181 3°17.513 11.891405 3.817028 33.068815 21.736631
2004-05-14 11:18:50 51°35.144 3°17.175 11.935184 3.816712 33.096504 20.523093
2004-05-14 11:19:50 51°35.108 3°16.84 11.939283 3.820717 33.099527 17.3207
2004-05-14 11:20:50 51°35.106 3°16.495 11.855623 3.817766 33.104586 14.421691
2004-05-14 11:21:50 51°35.111 3°16.15 11.909312 3.811654 33.067905 12.23058
2004-05-14 11:22:50 51°35.116 3°15.806 11.916055 3.813234 33.045454 10.713657
2004-05-14 11:23:50 51°35.112 3°15.463 11.947843 3.809229 33.013769 11.11817
2004-05-14 11:24:50 51°35.094 3°15.124 11.947843 3.809334 32.980655 10.54511
2004-05-14 11:25:50 51°35.078 3°14.783 11.926303 3.80554 32.957976 10.54511
2004-05-14 11:26:50 51°35.062 3°14.443 11.906943 3.804486 32.951983 10.309144
2004-05-14 11:27:50 51°35.046 3°14.103 11.922978 3.804275 32.969437 11.151879
2004-05-14 11:28:50 51°35.03 3°13.763 12.015924 3.810388 33.003352 10.410272
2004-05-14 11:29:50 51°35.015 3°13.422 11.989128 3.823983 33.041124 10.814785
2004-05-14 11:30:50 51°34.998 3°13.076 11.859088 3.816396 33.079471 11.185589
2004-05-14 11:31:50 51°34.989 3°12.729 11.94584 3.818504 33.122211 15.432973
2004-05-14 11:32:50 51°34.997 3°12.381 11.95959 3.820507 33.109372 12.972187
2004-05-14 11:33:50 51°35.005 3°12.033 11.978479 3.822403 33.06626 10.848494
2004-05-14 11:34:50 51°35.013 3°11.688 12.174342 3.818398 33.039502 10.781076
2004-05-14 11:35:50 51°35.02 3°11.346 12.2246 3.840634 33.010548 10.073178
2004-05-14 11:36:50 51°35.028 3°11.004 11.948709 3.824932 33.026631 10.848494
2004-05-14 11:37:50 51°35.037 3°10.662 11.827028 3.80944 33.016501 11.08446
2004-05-14 11:38:50 51°35.045 3°10.319 11.782082 3.801115 33.03524 12.062033
2004-05-14 11:39:50 51°35.054 3°9.975 11.808962 3.804382 33.071774 13.073315
2004-05-14 11:40:50 51°35.062 3°9.63 11.921976 3.813973 33.13586 13.3767
2004-05-14 11:41:50 51°35.067 3°9.281 11.972836 3.836632 33.193627 14.657657
2004-05-14 11:42:50 51°35.072 3°8.929 11.690635 3.835897 33.370744 21.197281
2004-05-14 11:43:50 51°35.077 3°8.578 11.661329 3.826834 33.395471 22.781623
2004-05-14 11:44:50 51°35.081 3°8.227 11.698405 3.826307 33.403141 22.781623
2004-05-14 11:45:50 51°35.086 3°7.876 11.747793 3.829996 33.419817 21.2647
2004-05-14 11:46:50 51°35.091 3°7.525 11.775235 3.837162 33.412044 17.86005
2004-05-14 11:47:50 51°35.095 3°7.171 11.724086 3.83906 33.438967 16.343127
2004-05-14 11:48:50 51°35.102 3°6.815 11.732766 3.837374 33.45882 16.848768
2004-05-14 11:49:50 51°35.109 3°6.457 11.761538 3.842011 33.464772 16.680221
2004-05-14 11:50:50 51°35.114 3°6.099 11.748752 3.843276 33.489132 15.904905
2004-05-14 11:51:50 51°35.12 3°5.739 11.734638 3.845911 33.506896 16.444255
2004-05-14 11:52:50 51°35.117 3°5.382 11.671937 3.843593 33.527086 16.410546
2004-05-14 11:53:50 51°35.108 3°5.024 11.644635 3.839904 33.527578 16.006033
2004-05-14 11:54:50 51°35.1 3°4.668 11.702701 3.837164 33.526604 16.410546
2004-05-14 11:55:50 51°35.093 3°4.314 11.736009 3.846543 33.52727 14.387982
2004-05-14 11:56:50 51°35.079 3°3.961 11.7714 3.84686 33.535326 14.084597
2004-05-14 11:57:50 51°35.061 3°3.611 11.680258 3.847176 33.555505 15.02846
2004-05-14 11:58:50 51°35.044 3°3.262 11.743226 3.847071 33.555193 15.06217
2004-05-14 11:59:49 51°35.031 3°2.917 11.697217 3.849811 33.571844 14.758785
2004-05-14 12:00:50 51°34.993 3°2.574 11.665216 3.848547 33.595244 16.579093
2004-05-14 12:01:50 51°34.96 3°2.229 11.60405 3.846756 33.624308 18.230853
2004-05-14 12:02:50 51°34.928 3°1.88 11.54631 3.844121 33.65242 19.107298
2004-05-14 12:03:50 51°34.894 3°1.53 11.521431 3.84233 33.673754 21.062443
2004-05-14 12:04:50 51°34.838 3°1.231 11.530321 3.841803 33.675804 20.455674
2004-05-14 12:05:50 51°34.787 3°1.142 11.554464 3.842646 33.679722 19.747777
2004-05-14 12:06:48 51°34.756 3°1.127 11.58629 3.846124 33.673397 17.994888
2004-05-14 12:07:49 51°34.724 3°1.12 11.583085 3.846545 33.668887 17.421828
2004-05-14 12:08:50 51°34.706 3°1.056 11.566692 3.84507 33.664549 18.331982
2004-05-14 12:09:50 51°34.699 3°0.969 11.557532 3.843278 33.657125 19.747777
2004-05-14 12:10:50 51°34.688 3°0.886 11.552082 3.842013 33.654842 20.489383
2004-05-14 12:11:56 51°34.678 3°0.796 11.579651 3.84254 33.649924 20.590512
2004-05-14 12:12:57 51°34.667 3°0.714 11.59691 3.84391 33.643182 20.792768
2004-05-14 12:13:56 51°34.655 3°0.635 11.617734 3.844648 33.636742 21.332118
2004-05-14 12:14:57 51°34.642 3°0.559 11.636767 3.846545 33.630137 19.983742
2004-05-14 12:15:57 51°34.625 3°0.49 11.650993 3.846966 33.620632 19.680358
2004-05-14 12:16:56 51°34.604 3°0.428 11.65671 3.838112 33.531555 18.702785
2004-05-14 12:17:57 51°34.582 3°0.363 11.659179 3.847388 33.611851 18.264563
2004-05-14 12:18:57 51°34.562 3°0.299 11.658814 3.847177 33.612661 18.635366
2004-05-14 12:19:57 51°34.541 3°0.234 11.665627 3.846966 33.598446 19.242136
2004-05-14 12:20:56 51°34.521 3°0.169 11.686064 3.846966 33.592726 19.815195
2004-05-14 12:21:57 51°34.499 3°0.104 11.725685 3.848652 33.58841 19.00617
2004-05-14 12:22:57 51°34.474 3°0.045 11.7398 3.850971 33.580259 17.927469
2004-05-14 12:23:57 51°34.45 2°59.985 11.739983 3.851603 33.578558 18.230853
2004-05-14 12:24:57 51°34.426 2°59.923 11.762588 3.852446 33.574629 17.826341
2004-05-14 12:25:56 51°34.402 2°59.863 11.753638 3.852973 33.572621 16.983606
2004-05-14 12:26:57 51°34.378 2°59.801 11.737745 3.851814 33.575615 17.994888
2004-05-14 12:27:57 51°34.353 2°59.741 11.729385 3.850233 33.572375 18.567947
2004-05-14 12:28:56 51°34.329 2°59.68 11.738978 3.850022 33.568188 17.691503
2004-05-14 12:29:56 51°34.305 2°59.619 11.758753 3.850127 33.564221 17.084734
2004-05-14 12:30:57 51°34.28 2°59.556 11.789522 3.852235 33.555485 16.815059
2004-05-14 12:31:56 51°34.255 2°59.494 11.792032 3.853394 33.553215 17.219571
2004-05-14 12:32:57 51°34.23 2°59.43 11.781078 3.853394 33.553215 16.646512
2004-05-14 12:33:57 51°34.205 2°59.369 11.770395 3.852762 33.555618 17.3207
2004-05-14 12:34:56 51°34.18 2°59.307 11.751766 3.851076 33.554197 17.219571
2004-05-14 12:35:57 51°34.154 2°59.243 11.738932 3.8496 33.55625 18.062306
2004-05-14 12:36:56 51°34.128 2°59.181 11.739709 3.849495 33.557364 18.062306
2004-05-14 12:37:57 51°34.102 2°59.115 11.736511 3.849389 33.55634 17.961178
2004-05-14 12:38:57 51°34.075 2°59.052 11.721801 3.848968 33.560797 18.567947
2004-05-14 12:39:57 51°34.048 2°58.989 11.721847 3.848441 33.562093 18.096016
2004-05-14 12:40:57 51°34.027 2°58.92 11.715131 3.848336 33.566062 18.331982
2004-05-14 12:41:57 51°34.01 2°58.843 11.715405 3.847493 33.568567 18.837623
2004-05-14 12:42:56 51°33.994 2°58.761 11.735095 3.848757 33.566593 18.534238
2004-05-14 12:44:02 51°33.978 2°58.679 11.729796 3.8496 33.567656 17.725212
2004-05-14 12:45:01 51°33.967 2°58.63 11.749026 3.849073 33.5661 17.826341
2004-05-14 12:46:02 51°33.951 2°58.591 11.758981 3.851814 33.567774 17.388118
2004-05-14 12:47:01 51°33.86 2°58.569 11.815532 3.853605 33.568075 16.781349
2004-05-14 12:48:01 51°33.71 2°58.498 11.715953 3.857926 33.57015 15.466683
2004-05-14 12:49:02 51°33.55 2°58.41 11.757383 3.852025 33.579089 16.983606
2004-05-14 12:50:02 51°33.391 2°58.325 11.795364 3.854238 33.600595 16.680221
2004-05-14 12:51:02 51°33.272 2°58.244 11.81243 3.861089 33.611502 16.376836
2004-05-14 12:52:02 51°33.235 2°58.158 11.854756 3.863934 33.619877 15.938614
2004-05-14 12:53:02 51°33.23 2°58.086 11.80157 3.866464 33.627316 14.961042
2004-05-14 12:54:02 51°33.233 2°58.017 11.761903 3.863408 33.645414 15.399264
2004-05-14 12:55:01 51°33.151 2°57.921 11.965917 3.867834 33.634904 15.331845
2004-05-14 12:56:02 51°32.956 2°57.808 11.922933 3.878268 33.633576 14.253144
2004-05-14 12:57:02 51°32.756 2°57.689 12.004552 3.875528 33.637596 14.320563
2004-05-14 12:58:02 51°32.555 2°57.569 11.916419 3.87595 33.663713 14.152016
2004-05-14 12:59:02 51°32.355 2°57.446 11.932315 3.879534 33.674931 14.590238
2004-05-14 13:00:02 51°32.155 2°57.321 11.90585 3.884487 33.692285 13.275571
2004-05-14 13:01:02 51°31.955 2°57.194 11.968557 3.881326 33.702947 13.511537
2004-05-14 13:02:02 51°31.753 2°57.07 11.903162 3.886807 33.735347 13.882341
2004-05-14 13:03:02 51°31.548 2°56.95 12.032843 3.881537 33.755619 13.208153
2004-05-14 13:04:02 51°31.34 2°56.835 12.600465 3.911995 33.632312 11.455264
2004-05-14 13:05:02 51°31.133 2°56.72 12.919498 3.954051 33.616052 10.915913
2004-05-14 13:06:02 51°30.926 2°56.603 12.803944 3.968386 33.649607 10.814785
2004-05-14 13:07:02 51°30.718 2°56.484 11.915553 3.945621 33.775939 11.455264
2004-05-14 13:08:02 51°30.508 2°56.361 11.967692 3.87732 33.688371 12.601383
2004-05-14 13:09:02 51°30.297 2°56.238 11.981255 3.883222 33.661593 12.500255
2004-05-14 13:10:02 51°30.087 2°56.108 11.873721 3.878058 33.671317 13.814922
2004-05-14 13:11:02 51°29.876 2°55.981 12.105152 3.876688 33.668011 13.545247
2004-05-14 13:12:02 51°29.665 2°55.86 11.956266 3.88396 33.657371 14.522819
2004-05-14 13:13:02 51°29.454 2°55.737 11.970606 3.877214 33.609207 15.399264
2004-05-14 13:14:02 51°29.244 2°55.611 11.991949 3.873946 33.590383 13.983469
2004-05-14 13:15:02 51°29.032 2°55.482 11.881105 3.870363 33.575577 14.522819
2004-05-14 13:16:02 51°28.822 2°55.354 11.871488 3.862247 33.55803 16.646512
2004-05-14 13:17:01 51°28.617 2°55.226 11.850789 3.860139 33.548259 16.275708
2004-05-14 13:18:02 51°28.405 2°55.093 11.828853 3.857399 33.538746 16.781349
2004-05-14 13:19:02 51°28.196 2°54.962 11.811563 3.853816 33.533128 19.478101
2004-05-14 13:20:02 51°27.985 2°54.83 11.886301 3.85371 33.523581 20.084871
2004-05-14 13:21:02 51°27.775 2°54.7 11.887349 3.86035 33.524768 17.522956
2004-05-14 13:22:02 51°27.563 2°54.567 11.947206 3.859401 33.504962 19.141007
2004-05-14 13:23:02 51°27.352 2°54.433 11.951258 3.863722 33.492995 18.163435
2004-05-14 13:24:02 51°27.142 2°54.299 11.981802 3.859717 33.46277 18.264563
2004-05-14 13:25:02 51°26.931 2°54.166 12.239743 3.881427 33.397994 13.949759
2004-05-14 13:26:02 51°26.722 2°54.038 12.133581 3.87036 33.381197 15.871195
2004-05-14 13:27:02 51°26.513 2°53.907 12.056257 3.857291 33.319169 15.972324
2004-05-14 13:28:02 51°26.296 2°53.818 12.324006 3.850123 33.256473 14.556529
2004-05-14 13:29:01 51°26.074 2°53.784 12.448846 3.872781 33.184055 13.241862
2004-05-14 13:30:02 51°25.843 2°53.75 12.459826 3.874573 33.168042 14.994751
2004-05-14 13:31:02 51°25.615 2°53.727 12.474419 3.870146 33.134075 17.084734
2004-05-14 13:32:02 51°25.386 2°53.7 12.518537 3.869935 33.103162 16.309418
2004-05-14 13:33:02 51°25.156 2°53.674 12.753628 3.87689 33.088409 15.432973
2004-05-14 13:34:02 51°24.928 2°53.645 12.360623 3.885743 33.072655 14.185725
2004-05-14 13:35:02 51°24.7 2°53.625 12.264444 3.843585 33.008454 16.781349
2004-05-14 13:36:02 51°24.472 2°53.612 12.262586 3.833045 32.950288 16.343127
2004-05-14 13:37:02 51°24.251 2°53.537 12.207005 3.828935 32.898546 17.927469
2004-05-14 13:38:02 51°24.034 2°53.408 12.282794 3.822611 32.898543 19.612939
2004-05-14 13:39:02 51°23.816 2°53.285 12.316626 3.832307 32.868324 18.669076
2004-05-14 13:40:02 51°23.595 2°53.168 12.320384 3.832307 32.884098 16.848768
2004-05-14 13:41:02 51°23.376 2°53.051 12.310604 3.829145 32.858676 15.06217
2004-05-14 13:42:02 51°23.156 2°52.938 12.581029 3.823242 32.755103 15.230717
2004-05-14 13:43:02 51°22.938 2°52.824 12.695214 3.831775 32.543862 15.432973
2004-05-14 13:44:01 51°22.724 2°52.713 12.573588 3.823239 32.574652 15.197007
2004-05-14 13:45:02 51°22.503 2°52.597 12.424214 3.818918 32.574116 15.06217
2004-05-14 13:46:02 51°22.284 2°52.489 12.40744 3.814598 32.630504 15.972324
2004-05-14 13:47:02 51°22.06 2°52.421 12.404817 3.808591 32.640512 14.084597
2004-05-14 13:48:02 51°21.828 2°52.433 12.471934 3.822924 32.679247 15.904905
2004-05-14 13:49:02 51°21.597 2°52.446 12.468772 3.826824 32.668182 15.197007
2004-05-14 13:50:02 51°21.365 2°52.454 12.603981 3.82714 32.65493 14.691366
2004-05-14 13:51:02 51°21.132 2°52.458 12.453365 3.83146 32.640511 14.657657
2004-05-14 13:52:02 51°20.9 2°52.461 12.516415 3.818708 32.622166 14.758785
2004-05-14 13:53:02 51°20.668 2°52.461 12.490091 3.821132 32.599197 14.421691
2004-05-14 13:54:02 51°20.439 2°52.463 13.095072 3.826506 32.536962 14.118306
2004-05-14 13:55:02 51°20.211 2°52.464 12.953771 3.831244 32.295938 16.781349
2004-05-14 13:56:02 51°19.982 2°52.461 12.700391 3.810481 32.112272 19.00617
2004-05-14 13:57:02 51°19.75 2°52.456 12.369446 3.761688 32.067042 20.185999
2004-05-14 13:58:02 51°19.517 2°52.454 12.287641 3.742719 32.010734 20.927606
2004-05-14 13:59:02 51°19.282 2°52.448 12.337904 3.738821 32.013 23.085007
2004-05-14 14:00:02 51°19.047 2°52.443 12.3044 3.744195 32.036796 22.579366
2004-05-14 14:01:00 51°18.82 2°52.442 12.614034 3.742509 32.009396 22.983879
2004-05-14 14:02:02 51°18.579 2°52.443 12.893468 3.800154 32.211764 19.208426
2004-05-14 14:03:02 51°18.348 2°52.441 12.771483 3.809218 32.25547 16.815059
2004-05-14 14:04:02 51°18.115 2°52.435 12.427604 3.78129 32.152351 17.556665
2004-05-14 14:05:02 51°17.883 2°52.437 12.31314 3.750307 32.043554 18.803913
2004-05-14 14:06:02 51°17.65 2°52.437 12.535689 3.750096 32.018225 17.792631
2004-05-14 14:07:02 51°17.417 2°52.436 12.527655 3.760528 32.028131 17.219571
2004-05-14 14:08:02 51°17.189 2°52.479 13.071124 3.782658 32.018378 17.084734
2004-05-14 14:09:02 51°16.968 2°52.573 12.587749 3.791088 31.985343 16.006033
2004-05-14 14:10:02 51°16.747 2°52.663 12.379309 3.737553 31.824996 17.961178
2004-05-14 14:11:02 51°16.519 2°52.749 12.312642 3.713422 31.729453 19.410683
2004-05-14 14:12:02 51°16.292 2°52.834 12.453004 3.705307 31.660923 19.612939
2004-05-14 14:13:02 51°16.074 2°52.95 12.992374 3.734494 31.58912 18.905042
2004-05-14 14:14:02 51°15.861 2°53.086 13.51608 3.752936 31.650038 17.624084
2004-05-14 14:15:02 51°15.648 2°53.225 12.656664 3.745135 31.439638 16.781349
2004-05-14 14:16:02 51°15.449 2°53.401 12.49262 3.694133 31.341938 16.107161
2004-05-14 14:17:02 51°15.257 2°53.593 12.444915 3.68876 31.374312 17.017315
2004-05-14 14:18:02 51°15.076 2°53.806 12.64076 3.680962 31.306422 17.354409
2004-05-14 14:19:02 51°14.895 2°54.02 12.526798 3.687916 31.301418 17.185862
2004-05-14 14:20:02 51°14.73 2°54.261 13.041705 3.691497 31.233777 17.017315
2004-05-14 14:21:02 51°14.582 2°54.528 12.752143 3.697713 31.15358 16.848768
2004-05-14 14:22:02 51°14.452 2°54.813 12.625483 3.676112 31.096143 18.669076